sensor_id;sensor_type;location;lat;lon;timestamp;P1;durP1;ratioP1;P2;durP2;ratioP2
13411;SDS011;67102;51.666;6.880;2023-03-01T00:01:32;3.80;;;3.40;;
13411;SDS011;67102;51.666;6.880;2023-03-01T00:03:58;4.57;;;3.77;;
13411;SDS011;67102;51.666;6.880;2023-03-01T00:06:25;3.93;;;3.10;;
13411;SDS011;67102;51.666;6.880;2023-03-01T00:08:53;3.60;;;3.00;;
13411;SDS011;67102;51.666;6.880;2023-03-01T00:11:20;4.87;;;2.70;;
13411;SDS011;67102;51.666;6.880;2023-03-01T00:13:49;3.00;;;2.70;;
13411;SDS011;67102;51.666;6.880;2023-03-01T00:16:18;3.13;;;2.70;;
13411;SDS011;67102;51.666;6.880;2023-03-01T00:18:46;2.90;;;2.70;;
13411;SDS011;67102;51.666;6.880;2023-03-01T00:21:12;2.50;;;2.30;;
13411;SDS011;67102;51.666;6.880;2023-03-01T00:23:38;2.60;;;2.40;;
13411;SDS011;67102;51.666;6.880;2023-03-01T00:26:07;2.87;;;2.57;;
13411;SDS011;67102;51.666;6.880;2023-03-01T00:28:35;3.50;;;2.40;;
13411;SDS011;67102;51.666;6.880;2023-03-01T00:31:02;3.30;;;2.60;;
13411;SDS011;67102;51.666;6.880;2023-03-01T00:33:29;2.80;;;2.60;;
13411;SDS011;67102;51.666;6.880;2023-03-01T00:35:57;2.93;;;2.50;;
13411;SDS011;67102;51.666;6.880;2023-03-01T00:38:24;3.27;;;2.50;;
13411;SDS011;67102;51.666;6.880;2023-03-01T00:40:50;2.50;;;2.30;;
13411;SDS011;67102;51.666;6.880;2023-03-01T00:43:17;2.50;;;2.30;;
13411;SDS011;67102;51.666;6.880;2023-03-01T00:45:43;2.60;;;2.40;;
13411;SDS011;67102;51.666;6.880;2023-03-01T00:48:09;2.57;;;2.33;;
13411;SDS011;67102;51.666;6.880;2023-03-01T00:50:35;3.33;;;2.60;;
13411;SDS011;67102;51.666;6.880;2023-03-01T00:53:01;2.27;;;2.07;;
13411;SDS011;67102;51.666;6.880;2023-03-01T00:55:27;2.53;;;2.33;;
13411;SDS011;67102;51.666;6.880;2023-03-01T00:57:53;2.60;;;2.40;;
13411;SDS011;67102;51.666;6.880;2023-03-01T01:00:20;2.67;;;2.47;;
13411;SDS011;67102;51.666;6.880;2023-03-01T01:02:46;3.33;;;2.93;;
13411;SDS011;67102;51.666;6.880;2023-03-01T01:05:13;3.50;;;3.13;;
13411;SDS011;67102;51.666;6.880;2023-03-01T01:07:39;5.37;;;4.07;;
13411;SDS011;67102;51.666;6.880;2023-03-01T01:10:05;4.43;;;3.60;;
13411;SDS011;67102;51.666;6.880;2023-03-01T01:12:33;4.03;;;3.63;;
13411;SDS011;67102;51.666;6.880;2023-03-01T01:14:59;4.37;;;3.57;;
13411;SDS011;67102;51.666;6.880;2023-03-01T01:17:27;4.33;;;3.53;;
13411;SDS011;67102;51.666;6.880;2023-03-01T01:19:52;3.60;;;3.30;;
13411;SDS011;67102;51.666;6.880;2023-03-01T01:22:18;4.13;;;3.57;;
13411;SDS011;67102;51.666;6.880;2023-03-01T01:24:44;3.90;;;3.50;;
13411;SDS011;67102;51.666;6.880;2023-03-01T01:27:10;3.70;;;3.40;;
13411;SDS011;67102;51.666;6.880;2023-03-01T01:29:36;3.77;;;3.43;;
13411;SDS011;67102;51.666;6.880;2023-03-01T01:32:02;3.57;;;3.17;;
13411;SDS011;67102;51.666;6.880;2023-03-01T01:34:30;3.60;;;3.30;;
13411;SDS011;67102;51.666;6.880;2023-03-01T01:36:55;4.43;;;3.43;;
13411;SDS011;67102;51.666;6.880;2023-03-01T01:39:22;4.00;;;3.47;;
13411;SDS011;67102;51.666;6.880;2023-03-01T01:41:48;3.70;;;3.30;;
13411;SDS011;67102;51.666;6.880;2023-03-01T01:44:16;3.83;;;3.33;;
13411;SDS011;67102;51.666;6.880;2023-03-01T01:46:45;4.20;;;3.20;;
13411;SDS011;67102;51.666;6.880;2023-03-01T01:49:19;4.00;;;3.57;;
13411;SDS011;67102;51.666;6.880;2023-03-01T01:51:55;3.90;;;3.50;;
13411;SDS011;67102;51.666;6.880;2023-03-01T01:54:28;4.93;;;3.97;;
13411;SDS011;67102;51.666;6.880;2023-03-01T01:57:05;4.23;;;3.80;;
13411;SDS011;67102;51.666;6.880;2023-03-01T01:59:37;5.63;;;4.10;;
13411;SDS011;67102;51.666;6.880;2023-03-01T02:02:04;4.50;;;3.80;;
13411;SDS011;67102;51.666;6.880;2023-03-01T02:04:30;4.43;;;3.73;;
13411;SDS011;67102;51.666;6.880;2023-03-01T02:06:59;3.70;;;3.40;;
13411;SDS011;67102;51.666;6.880;2023-03-01T02:09:29;4.53;;;3.60;;
13411;SDS011;67102;51.666;6.880;2023-03-01T02:11:57;4.27;;;3.40;;
13411;SDS011;67102;51.666;6.880;2023-03-01T02:14:24;3.53;;;3.20;;
13411;SDS011;67102;51.666;6.880;2023-03-01T02:16:50;4.37;;;3.50;;
13411;SDS011;67102;51.666;6.880;2023-03-01T02:19:26;3.53;;;3.23;;
13411;SDS011;67102;51.666;6.880;2023-03-01T02:22:11;4.77;;;3.30;;
13411;SDS011;67102;51.666;6.880;2023-03-01T02:24:46;5.07;;;3.47;;
13411;SDS011;67102;51.666;6.880;2023-03-01T02:27:25;6.27;;;3.63;;
13411;SDS011;67102;51.666;6.880;2023-03-01T02:30:00;3.93;;;3.37;;
13411;SDS011;67102;51.666;6.880;2023-03-01T02:32:26;3.93;;;3.33;;
13411;SDS011;67102;51.666;6.880;2023-03-01T02:34:53;4.90;;;3.70;;
13411;SDS011;67102;51.666;6.880;2023-03-01T02:37:20;3.97;;;3.53;;
13411;SDS011;67102;51.666;6.880;2023-03-01T02:39:47;4.50;;;3.73;;
13411;SDS011;67102;51.666;6.880;2023-03-01T02:42:18;3.90;;;3.40;;
13411;SDS011;67102;51.666;6.880;2023-03-01T02:44:48;4.27;;;3.43;;
13411;SDS011;67102;51.666;6.880;2023-03-01T02:47:16;4.63;;;3.90;;
13411;SDS011;67102;51.666;6.880;2023-03-01T02:49:42;3.80;;;3.43;;
13411;SDS011;67102;51.666;6.880;2023-03-01T02:52:13;3.80;;;3.40;;
13411;SDS011;67102;51.666;6.880;2023-03-01T02:54:54;4.73;;;3.80;;
13411;SDS011;67102;51.666;6.880;2023-03-01T02:57:24;4.00;;;3.60;;
13411;SDS011;67102;51.666;6.880;2023-03-01T02:59:52;4.83;;;3.97;;
13411;SDS011;67102;51.666;6.880;2023-03-01T03:02:21;4.80;;;3.73;;
13411;SDS011;67102;51.666;6.880;2023-03-01T03:04:49;4.87;;;3.47;;
13411;SDS011;67102;51.666;6.880;2023-03-01T03:07:15;3.87;;;3.37;;
13411;SDS011;67102;51.666;6.880;2023-03-01T03:09:41;3.90;;;3.50;;
13411;SDS011;67102;51.666;6.880;2023-03-01T03:12:07;4.23;;;3.63;;
13411;SDS011;67102;51.666;6.880;2023-03-01T03:14:33;3.67;;;3.27;;
13411;SDS011;67102;51.666;6.880;2023-03-01T03:16:59;3.90;;;3.40;;
13411;SDS011;67102;51.666;6.880;2023-03-01T03:19:26;4.30;;;3.60;;
13411;SDS011;67102;51.666;6.880;2023-03-01T03:21:52;5.63;;;4.03;;
13411;SDS011;67102;51.666;6.880;2023-03-01T03:24:18;5.27;;;4.30;;
13411;SDS011;67102;51.666;6.880;2023-03-01T03:26:44;5.93;;;4.27;;
13411;SDS011;67102;51.666;6.880;2023-03-01T03:29:10;4.70;;;4.20;;
13411;SDS011;67102;51.666;6.880;2023-03-01T03:31:36;4.20;;;3.80;;
13411;SDS011;67102;51.666;6.880;2023-03-01T03:34:01;4.00;;;3.60;;
13411;SDS011;67102;51.666;6.880;2023-03-01T03:36:29;4.90;;;3.70;;
13411;SDS011;67102;51.666;6.880;2023-03-01T03:38:55;6.47;;;4.53;;
13411;SDS011;67102;51.666;6.880;2023-03-01T03:41:20;4.50;;;3.90;;
13411;SDS011;67102;51.666;6.880;2023-03-01T03:43:46;4.73;;;3.90;;
13411;SDS011;67102;51.666;6.880;2023-03-01T03:46:12;4.90;;;4.00;;
13411;SDS011;67102;51.666;6.880;2023-03-01T03:48:39;5.87;;;3.90;;
13411;SDS011;67102;51.666;6.880;2023-03-01T03:51:09;6.53;;;3.90;;
13411;SDS011;67102;51.666;6.880;2023-03-01T03:53:38;3.83;;;3.40;;
13411;SDS011;67102;51.666;6.880;2023-03-01T03:56:06;4.20;;;3.30;;
13411;SDS011;67102;51.666;6.880;2023-03-01T03:58:32;3.67;;;3.33;;
13411;SDS011;67102;51.666;6.880;2023-03-01T04:00:58;3.17;;;2.87;;
13411;SDS011;67102;51.666;6.880;2023-03-01T04:03:25;3.93;;;3.20;;
13411;SDS011;67102;51.666;6.880;2023-03-01T04:05:53;3.03;;;2.73;;
13411;SDS011;67102;51.666;6.880;2023-03-01T04:08:22;3.37;;;3.07;;
13411;SDS011;67102;51.666;6.880;2023-03-01T04:10:50;3.47;;;3.13;;
13411;SDS011;67102;51.666;6.880;2023-03-01T04:13:19;3.37;;;3.03;;
13411;SDS011;67102;51.666;6.880;2023-03-01T04:15:47;3.30;;;3.00;;
13411;SDS011;67102;51.666;6.880;2023-03-01T04:18:14;3.70;;;3.20;;
13411;SDS011;67102;51.666;6.880;2023-03-01T04:20:42;3.23;;;2.93;;
13411;SDS011;67102;51.666;6.880;2023-03-01T04:23:10;3.33;;;3.03;;
13411;SDS011;67102;51.666;6.880;2023-03-01T04:25:39;3.63;;;3.33;;
13411;SDS011;67102;51.666;6.880;2023-03-01T04:28:08;3.97;;;3.03;;
13411;SDS011;67102;51.666;6.880;2023-03-01T04:30:35;3.33;;;3.03;;
13411;SDS011;67102;51.666;6.880;2023-03-01T04:33:03;3.60;;;2.73;;
13411;SDS011;67102;51.666;6.880;2023-03-01T04:35:30;3.97;;;3.50;;
13411;SDS011;67102;51.666;6.880;2023-03-01T04:37:57;3.60;;;3.30;;
13411;SDS011;67102;51.666;6.880;2023-03-01T04:40:23;3.60;;;3.20;;
13411;SDS011;67102;51.666;6.880;2023-03-01T04:42:49;3.80;;;3.17;;
13411;SDS011;67102;51.666;6.880;2023-03-01T04:45:16;4.17;;;3.77;;
13411;SDS011;67102;51.666;6.880;2023-03-01T04:47:43;4.20;;;3.60;;
13411;SDS011;67102;51.666;6.880;2023-03-01T04:50:11;4.47;;;3.40;;
13411;SDS011;67102;51.666;6.880;2023-03-01T04:52:39;5.33;;;4.20;;
13411;SDS011;67102;51.666;6.880;2023-03-01T04:55:06;7.93;;;3.57;;
13411;SDS011;67102;51.666;6.880;2023-03-01T04:57:33;4.33;;;3.70;;
13411;SDS011;67102;51.666;6.880;2023-03-01T04:59:59;5.43;;;3.27;;
13411;SDS011;67102;51.666;6.880;2023-03-01T05:02:27;5.13;;;3.60;;
13411;SDS011;67102;51.666;6.880;2023-03-01T05:04:53;3.37;;;3.07;;
13411;SDS011;67102;51.666;6.880;2023-03-01T05:07:19;4.40;;;3.40;;
13411;SDS011;67102;51.666;6.880;2023-03-01T05:09:45;6.03;;;4.30;;
13411;SDS011;67102;51.666;6.880;2023-03-01T05:12:11;5.03;;;3.77;;
13411;SDS011;67102;51.666;6.880;2023-03-01T05:14:37;6.47;;;4.00;;
13411;SDS011;67102;51.666;6.880;2023-03-01T05:17:03;5.10;;;4.30;;
13411;SDS011;67102;51.666;6.880;2023-03-01T05:19:30;4.00;;;3.60;;
13411;SDS011;67102;51.666;6.880;2023-03-01T05:21:57;4.90;;;4.37;;
13411;SDS011;67102;51.666;6.880;2023-03-01T05:24:22;4.93;;;4.27;;
13411;SDS011;67102;51.666;6.880;2023-03-01T05:26:48;4.67;;;4.17;;
13411;SDS011;67102;51.666;6.880;2023-03-01T05:29:14;5.10;;;4.57;;
13411;SDS011;67102;51.666;6.880;2023-03-01T05:31:40;5.37;;;4.27;;
13411;SDS011;67102;51.666;6.880;2023-03-01T05:34:06;4.20;;;3.80;;
13411;SDS011;67102;51.666;6.880;2023-03-01T05:36:33;5.90;;;4.27;;
13411;SDS011;67102;51.666;6.880;2023-03-01T05:38:59;4.60;;;4.03;;
13411;SDS011;67102;51.666;6.880;2023-03-01T05:41:25;4.43;;;3.93;;
13411;SDS011;67102;51.666;6.880;2023-03-01T05:43:51;8.63;;;4.63;;
13411;SDS011;67102;51.666;6.880;2023-03-01T05:46:17;7.67;;;4.53;;
13411;SDS011;67102;51.666;6.880;2023-03-01T05:48:43;7.03;;;4.70;;
13411;SDS011;67102;51.666;6.880;2023-03-01T05:51:09;5.40;;;4.83;;
13411;SDS011;67102;51.666;6.880;2023-03-01T05:53:36;6.07;;;4.87;;
13411;SDS011;67102;51.666;6.880;2023-03-01T05:56:02;4.90;;;4.03;;
13411;SDS011;67102;51.666;6.880;2023-03-01T05:58:29;4.30;;;3.90;;
13411;SDS011;67102;51.666;6.880;2023-03-01T06:00:55;6.20;;;4.50;;
13411;SDS011;67102;51.666;6.880;2023-03-01T06:03:20;5.30;;;4.17;;
13411;SDS011;67102;51.666;6.880;2023-03-01T06:05:46;5.23;;;4.40;;
13411;SDS011;67102;51.666;6.880;2023-03-01T06:08:12;4.90;;;4.40;;
13411;SDS011;67102;51.666;6.880;2023-03-01T06:10:40;7.10;;;5.33;;
13411;SDS011;67102;51.666;6.880;2023-03-01T06:13:06;5.50;;;4.50;;
13411;SDS011;67102;51.666;6.880;2023-03-01T06:15:32;6.50;;;4.80;;
13411;SDS011;67102;51.666;6.880;2023-03-01T06:17:58;5.47;;;4.70;;
13411;SDS011;67102;51.666;6.880;2023-03-01T06:20:25;5.87;;;4.53;;
13411;SDS011;67102;51.666;6.880;2023-03-01T06:22:53;5.70;;;4.93;;
13411;SDS011;67102;51.666;6.880;2023-03-01T06:25:19;4.83;;;4.23;;
13411;SDS011;67102;51.666;6.880;2023-03-01T06:27:51;6.40;;;4.37;;
13411;SDS011;67102;51.666;6.880;2023-03-01T06:30:18;7.00;;;4.47;;
13411;SDS011;67102;51.666;6.880;2023-03-01T06:32:45;7.07;;;4.60;;
13411;SDS011;67102;51.666;6.880;2023-03-01T06:35:12;5.63;;;4.17;;
13411;SDS011;67102;51.666;6.880;2023-03-01T06:37:40;5.03;;;4.00;;
13411;SDS011;67102;51.666;6.880;2023-03-01T06:40:07;5.30;;;4.03;;
13411;SDS011;67102;51.666;6.880;2023-03-01T06:42:35;5.40;;;4.00;;
13411;SDS011;67102;51.666;6.880;2023-03-01T06:45:03;4.87;;;4.00;;
13411;SDS011;67102;51.666;6.880;2023-03-01T06:47:30;5.77;;;4.97;;
13411;SDS011;67102;51.666;6.880;2023-03-01T06:49:56;6.03;;;4.30;;
13411;SDS011;67102;51.666;6.880;2023-03-01T06:52:22;5.70;;;4.67;;
13411;SDS011;67102;51.666;6.880;2023-03-01T06:54:48;5.87;;;4.57;;
13411;SDS011;67102;51.666;6.880;2023-03-01T06:57:14;7.20;;;5.10;;
13411;SDS011;67102;51.666;6.880;2023-03-01T06:59:40;5.73;;;4.90;;
13411;SDS011;67102;51.666;6.880;2023-03-01T07:02:08;8.03;;;4.80;;
13411;SDS011;67102;51.666;6.880;2023-03-01T07:04:35;5.40;;;4.90;;
13411;SDS011;67102;51.666;6.880;2023-03-01T07:07:01;6.70;;;5.00;;
13411;SDS011;67102;51.666;6.880;2023-03-01T07:09:27;7.47;;;5.30;;
13411;SDS011;67102;51.666;6.880;2023-03-01T07:11:53;7.00;;;5.13;;
13411;SDS011;67102;51.666;6.880;2023-03-01T07:14:19;7.27;;;5.53;;
13411;SDS011;67102;51.666;6.880;2023-03-01T07:16:45;6.07;;;5.47;;
13411;SDS011;67102;51.666;6.880;2023-03-01T07:19:12;6.13;;;5.40;;
13411;SDS011;67102;51.666;6.880;2023-03-01T07:21:38;6.33;;;5.47;;
13411;SDS011;67102;51.666;6.880;2023-03-01T07:24:04;7.27;;;5.97;;
13411;SDS011;67102;51.666;6.880;2023-03-01T07:26:31;7.47;;;5.77;;
13411;SDS011;67102;51.666;6.880;2023-03-01T07:28:58;6.87;;;5.77;;
13411;SDS011;67102;51.666;6.880;2023-03-01T07:31:24;7.27;;;6.00;;
13411;SDS011;67102;51.666;6.880;2023-03-01T07:33:50;6.13;;;5.10;;
13411;SDS011;67102;51.666;6.880;2023-03-01T07:36:17;6.20;;;4.93;;
13411;SDS011;67102;51.666;6.880;2023-03-01T07:38:43;9.03;;;5.27;;
13411;SDS011;67102;51.666;6.880;2023-03-01T07:41:09;5.93;;;5.30;;
13411;SDS011;67102;51.666;6.880;2023-03-01T07:43:35;7.00;;;5.77;;
13411;SDS011;67102;51.666;6.880;2023-03-01T07:46:01;7.23;;;5.37;;
13411;SDS011;67102;51.666;6.880;2023-03-01T07:48:29;8.03;;;5.53;;
13411;SDS011;67102;51.666;6.880;2023-03-01T07:50:57;6.30;;;5.37;;
13411;SDS011;67102;51.666;6.880;2023-03-01T07:53:24;6.80;;;5.50;;
13411;SDS011;67102;51.666;6.880;2023-03-01T07:55:59;6.13;;;5.53;;
13411;SDS011;67102;51.666;6.880;2023-03-01T07:58:26;7.13;;;5.33;;
13411;SDS011;67102;51.666;6.880;2023-03-01T08:00:52;6.47;;;4.70;;
13411;SDS011;67102;51.666;6.880;2023-03-01T08:03:18;6.37;;;5.30;;
13411;SDS011;67102;51.666;6.880;2023-03-01T08:05:44;5.47;;;4.97;;
13411;SDS011;67102;51.666;6.880;2023-03-01T08:08:10;8.77;;;5.30;;
13411;SDS011;67102;51.666;6.880;2023-03-01T08:10:37;6.03;;;5.23;;
13411;SDS011;67102;51.666;6.880;2023-03-01T08:13:03;6.63;;;5.03;;
13411;SDS011;67102;51.666;6.880;2023-03-01T08:15:29;5.73;;;5.13;;
13411;SDS011;67102;51.666;6.880;2023-03-01T08:17:54;5.90;;;5.30;;
13411;SDS011;67102;51.666;6.880;2023-03-01T08:20:20;5.23;;;4.70;;
13411;SDS011;67102;51.666;6.880;2023-03-01T08:22:46;6.10;;;5.30;;
13411;SDS011;67102;51.666;6.880;2023-03-01T08:25:12;6.57;;;5.23;;
13411;SDS011;67102;51.666;6.880;2023-03-01T08:27:39;5.40;;;4.90;;
13411;SDS011;67102;51.666;6.880;2023-03-01T08:30:06;5.97;;;5.00;;
13411;SDS011;67102;51.666;6.880;2023-03-01T08:32:35;6.50;;;5.80;;
13411;SDS011;67102;51.666;6.880;2023-03-01T08:35:02;6.20;;;5.60;;
13411;SDS011;67102;51.666;6.880;2023-03-01T08:37:29;8.40;;;6.07;;
13411;SDS011;67102;51.666;6.880;2023-03-01T08:39:55;7.97;;;5.47;;
13411;SDS011;67102;51.666;6.880;2023-03-01T08:42:21;7.23;;;5.47;;
13411;SDS011;67102;51.666;6.880;2023-03-01T08:44:48;7.57;;;5.93;;
13411;SDS011;67102;51.666;6.880;2023-03-01T08:47:14;5.93;;;5.23;;
13411;SDS011;67102;51.666;6.880;2023-03-01T08:49:40;7.27;;;5.57;;
13411;SDS011;67102;51.666;6.880;2023-03-01T08:52:06;5.30;;;4.80;;
13411;SDS011;67102;51.666;6.880;2023-03-01T08:54:32;6.23;;;5.63;;
13411;SDS011;67102;51.666;6.880;2023-03-01T08:56:58;5.87;;;5.37;;
13411;SDS011;67102;51.666;6.880;2023-03-01T08:59:28;7.23;;;5.57;;
13411;SDS011;67102;51.666;6.880;2023-03-01T09:01:55;6.70;;;6.00;;
13411;SDS011;67102;51.666;6.880;2023-03-01T09:04:21;6.33;;;5.73;;
13411;SDS011;67102;51.666;6.880;2023-03-01T09:06:47;7.07;;;5.53;;
13411;SDS011;67102;51.666;6.880;2023-03-01T09:09:14;6.80;;;5.40;;
13411;SDS011;67102;51.666;6.880;2023-03-01T09:11:41;6.03;;;5.43;;
13411;SDS011;67102;51.666;6.880;2023-03-01T09:14:07;5.67;;;5.03;;
13411;SDS011;67102;51.666;6.880;2023-03-01T09:16:33;6.03;;;5.43;;
13411;SDS011;67102;51.666;6.880;2023-03-01T09:19:01;5.40;;;4.90;;
13411;SDS011;67102;51.666;6.880;2023-03-01T09:21:28;6.07;;;5.47;;
13411;SDS011;67102;51.666;6.880;2023-03-01T09:23:55;5.57;;;5.07;;
13411;SDS011;67102;51.666;6.880;2023-03-01T09:26:23;6.73;;;5.10;;
13411;SDS011;67102;51.666;6.880;2023-03-01T09:28:50;6.13;;;5.53;;
13411;SDS011;67102;51.666;6.880;2023-03-01T09:31:19;6.13;;;5.47;;
13411;SDS011;67102;51.666;6.880;2023-03-01T09:33:47;5.90;;;5.30;;
13411;SDS011;67102;51.666;6.880;2023-03-01T09:36:18;6.17;;;5.57;;
13411;SDS011;67102;51.666;6.880;2023-03-01T09:38:45;7.10;;;5.57;;
13411;SDS011;67102;51.666;6.880;2023-03-01T09:41:21;6.10;;;5.50;;
13411;SDS011;67102;51.666;6.880;2023-03-01T09:44:01;6.37;;;5.03;;
13411;SDS011;67102;51.666;6.880;2023-03-01T09:46:35;5.53;;;4.83;;
13411;SDS011;67102;51.666;6.880;2023-03-01T09:49:09;6.57;;;5.47;;
13411;SDS011;67102;51.666;6.880;2023-03-01T09:51:41;5.00;;;4.40;;
13411;SDS011;67102;51.666;6.880;2023-03-01T09:54:15;6.77;;;5.30;;
13411;SDS011;67102;51.666;6.880;2023-03-01T09:56:42;5.83;;;5.23;;
13411;SDS011;67102;51.666;6.880;2023-03-01T09:59:17;7.30;;;5.90;;
13411;SDS011;67102;51.666;6.880;2023-03-01T10:01:50;6.63;;;5.60;;
13411;SDS011;67102;51.666;6.880;2023-03-01T10:04:27;7.73;;;5.87;;
13411;SDS011;67102;51.666;6.880;2023-03-01T10:09:53;7.63;;;5.77;;
13411;SDS011;67102;51.666;6.880;2023-03-01T10:12:20;7.27;;;5.37;;
13411;SDS011;67102;51.666;6.880;2023-03-01T10:14:54;5.57;;;5.07;;
13411;SDS011;67102;51.666;6.880;2023-03-01T10:17:26;6.20;;;5.33;;
13411;SDS011;67102;51.666;6.880;2023-03-01T10:20:05;6.03;;;5.33;;
13411;SDS011;67102;51.666;6.880;2023-03-01T10:22:43;7.47;;;5.10;;
13411;SDS011;67102;51.666;6.880;2023-03-01T10:25:09;7.00;;;5.70;;
13411;SDS011;67102;51.666;6.880;2023-03-01T10:27:41;6.13;;;5.50;;
13411;SDS011;67102;51.666;6.880;2023-03-01T10:30:16;6.57;;;5.00;;
13411;SDS011;67102;51.666;6.880;2023-03-01T10:32:44;6.43;;;5.27;;
13411;SDS011;67102;51.666;6.880;2023-03-01T10:35:15;9.70;;;5.03;;
13411;SDS011;67102;51.666;6.880;2023-03-01T10:37:57;6.03;;;5.30;;
13411;SDS011;67102;51.666;6.880;2023-03-01T10:40:28;7.73;;;5.03;;
13411;SDS011;67102;51.666;6.880;2023-03-01T10:42:54;8.40;;;5.17;;
13411;SDS011;67102;51.666;6.880;2023-03-01T10:45:28;5.40;;;4.80;;
13411;SDS011;67102;51.666;6.880;2023-03-01T10:48:05;7.17;;;4.97;;
13411;SDS011;67102;51.666;6.880;2023-03-01T10:50:37;8.03;;;5.30;;
13411;SDS011;67102;51.666;6.880;2023-03-01T10:53:09;5.40;;;4.90;;
13411;SDS011;67102;51.666;6.880;2023-03-01T10:55:56;6.63;;;4.87;;
13411;SDS011;67102;51.666;6.880;2023-03-01T10:58:25;8.27;;;5.33;;
13411;SDS011;67102;51.666;6.880;2023-03-01T11:00:53;5.43;;;4.93;;
13411;SDS011;67102;51.666;6.880;2023-03-01T11:03:22;5.80;;;4.90;;
13411;SDS011;67102;51.666;6.880;2023-03-01T11:05:50;6.20;;;4.40;;
13411;SDS011;67102;51.666;6.880;2023-03-01T11:08:31;6.90;;;4.90;;
13411;SDS011;67102;51.666;6.880;2023-03-01T11:11:12;6.30;;;5.03;;
13411;SDS011;67102;51.666;6.880;2023-03-01T11:13:49;5.70;;;5.10;;
13411;SDS011;67102;51.666;6.880;2023-03-01T11:16:23;7.27;;;5.03;;
13411;SDS011;67102;51.666;6.880;2023-03-01T11:19:04;5.67;;;4.90;;
13411;SDS011;67102;51.666;6.880;2023-03-01T11:21:42;5.87;;;4.80;;
13411;SDS011;67102;51.666;6.880;2023-03-01T11:24:17;6.33;;;5.13;;
13411;SDS011;67102;51.666;6.880;2023-03-01T11:26:45;6.17;;;5.10;;
13411;SDS011;67102;51.666;6.880;2023-03-01T11:29:18;6.63;;;5.23;;
13411;SDS011;67102;51.666;6.880;2023-03-01T11:31:55;6.10;;;5.30;;
13411;SDS011;67102;51.666;6.880;2023-03-01T11:34:35;7.50;;;5.37;;
13411;SDS011;67102;51.666;6.880;2023-03-01T11:37:09;6.03;;;5.43;;
13411;SDS011;67102;51.666;6.880;2023-03-01T11:39:49;6.00;;;5.43;;
13411;SDS011;67102;51.666;6.880;2023-03-01T11:42:25;6.47;;;4.80;;
13411;SDS011;67102;51.666;6.880;2023-03-01T11:45:08;6.27;;;5.00;;
13411;SDS011;67102;51.666;6.880;2023-03-01T11:47:43;6.77;;;5.30;;
13411;SDS011;67102;51.666;6.880;2023-03-01T11:50:29;7.87;;;5.40;;
13411;SDS011;67102;51.666;6.880;2023-03-01T11:53:05;6.43;;;5.17;;
13411;SDS011;67102;51.666;6.880;2023-03-01T11:55:54;6.47;;;5.33;;
13411;SDS011;67102;51.666;6.880;2023-03-01T11:58:35;7.17;;;5.57;;
13411;SDS011;67102;51.666;6.880;2023-03-01T12:01:27;9.23;;;5.47;;
13411;SDS011;67102;51.666;6.880;2023-03-01T12:04:07;6.57;;;5.30;;
13411;SDS011;67102;51.666;6.880;2023-03-01T12:07:11;6.70;;;5.63;;
13411;SDS011;67102;51.666;6.880;2023-03-01T12:09:46;5.90;;;5.30;;
13411;SDS011;67102;51.666;6.880;2023-03-01T12:12:44;7.70;;;5.87;;
13411;SDS011;67102;51.666;6.880;2023-03-01T12:15:37;6.30;;;5.50;;
13411;SDS011;67102;51.666;6.880;2023-03-01T12:18:32;6.70;;;5.50;;
13411;SDS011;67102;51.666;6.880;2023-03-01T12:21:21;6.50;;;5.80;;
13411;SDS011;67102;51.666;6.880;2023-03-01T12:27:15;7.90;;;6.30;;
13411;SDS011;67102;51.666;6.880;2023-03-01T12:29:57;7.73;;;6.00;;
13411;SDS011;67102;51.666;6.880;2023-03-01T12:32:43;6.60;;;5.90;;
13411;SDS011;67102;51.666;6.880;2023-03-01T12:35:23;6.70;;;5.90;;
13411;SDS011;67102;51.666;6.880;2023-03-01T12:38:06;6.80;;;5.63;;
13411;SDS011;67102;51.666;6.880;2023-03-01T12:44:06;7.00;;;6.00;;
13411;SDS011;67102;51.666;6.880;2023-03-01T12:46:56;10.20;;;6.90;;
13411;SDS011;67102;51.666;6.880;2023-03-01T12:49:45;7.30;;;5.60;;
13411;SDS011;67102;51.666;6.880;2023-03-01T12:52:19;9.03;;;6.37;;
13411;SDS011;67102;51.666;6.880;2023-03-01T12:54:49;7.57;;;5.80;;
13411;SDS011;67102;51.666;6.880;2023-03-01T12:57:20;7.87;;;5.67;;
13411;SDS011;67102;51.666;6.880;2023-03-01T12:59:58;8.73;;;6.13;;
13411;SDS011;67102;51.666;6.880;2023-03-01T13:02:45;7.57;;;5.97;;
13411;SDS011;67102;51.666;6.880;2023-03-01T13:05:19;7.30;;;6.43;;
13411;SDS011;67102;51.666;6.880;2023-03-01T13:07:59;8.50;;;6.77;;
13411;SDS011;67102;51.666;6.880;2023-03-01T13:10:33;8.27;;;6.00;;
13411;SDS011;67102;51.666;6.880;2023-03-01T13:13:13;6.87;;;6.13;;
13411;SDS011;67102;51.666;6.880;2023-03-01T13:15:45;7.23;;;5.90;;
13411;SDS011;67102;51.666;6.880;2023-03-01T13:18:29;6.70;;;6.00;;
13411;SDS011;67102;51.666;6.880;2023-03-01T13:20:57;6.87;;;5.87;;
13411;SDS011;67102;51.666;6.880;2023-03-01T13:23:27;9.77;;;6.73;;
13411;SDS011;67102;51.666;6.880;2023-03-01T13:26:00;8.43;;;6.63;;
13411;SDS011;67102;51.666;6.880;2023-03-01T13:28:37;7.47;;;6.57;;
13411;SDS011;67102;51.666;6.880;2023-03-01T13:37:18;7.90;;;7.00;;
13411;SDS011;67102;51.666;6.880;2023-03-01T13:39:47;10.93;;;6.53;;
13411;SDS011;67102;51.666;6.880;2023-03-01T13:42:31;8.57;;;7.23;;
13411;SDS011;67102;51.666;6.880;2023-03-01T13:45:15;10.33;;;7.43;;
13411;SDS011;67102;51.666;6.880;2023-03-01T13:47:46;9.90;;;7.37;;
13411;SDS011;67102;51.666;6.880;2023-03-01T13:50:20;11.57;;;7.23;;
13411;SDS011;67102;51.666;6.880;2023-03-01T13:52:50;10.80;;;6.63;;
13411;SDS011;67102;51.666;6.880;2023-03-01T13:55:21;8.10;;;6.70;;
13411;SDS011;67102;51.666;6.880;2023-03-01T13:57:53;7.80;;;6.80;;
13411;SDS011;67102;51.666;6.880;2023-03-01T14:00:29;8.40;;;6.40;;
13411;SDS011;67102;51.666;6.880;2023-03-01T14:02:59;8.20;;;7.10;;
13411;SDS011;67102;51.666;6.880;2023-03-01T14:05:29;10.07;;;7.33;;
13411;SDS011;67102;51.666;6.880;2023-03-01T14:07:55;9.33;;;7.37;;
13411;SDS011;67102;51.666;6.880;2023-03-01T14:10:21;9.57;;;7.27;;
13411;SDS011;67102;51.666;6.880;2023-03-01T14:12:49;9.20;;;7.33;;
13411;SDS011;67102;51.666;6.880;2023-03-01T14:15:25;9.13;;;6.90;;
13411;SDS011;67102;51.666;6.880;2023-03-01T14:18:01;11.77;;;7.50;;
13411;SDS011;67102;51.666;6.880;2023-03-01T14:20:39;8.03;;;6.93;;
13411;SDS011;67102;51.666;6.880;2023-03-01T14:23:09;8.13;;;6.70;;
13411;SDS011;67102;51.666;6.880;2023-03-01T14:25:38;8.30;;;6.93;;
13411;SDS011;67102;51.666;6.880;2023-03-01T14:28:14;8.30;;;6.67;;
13411;SDS011;67102;51.666;6.880;2023-03-01T14:30:44;8.57;;;6.87;;
13411;SDS011;67102;51.666;6.880;2023-03-01T14:33:19;7.13;;;6.30;;
13411;SDS011;67102;51.666;6.880;2023-03-01T14:35:54;7.77;;;6.90;;
13411;SDS011;67102;51.666;6.880;2023-03-01T14:38:27;8.30;;;6.87;;
13411;SDS011;67102;51.666;6.880;2023-03-01T14:40:58;7.30;;;6.47;;
13411;SDS011;67102;51.666;6.880;2023-03-01T14:43:26;7.47;;;6.07;;
13411;SDS011;67102;51.666;6.880;2023-03-01T14:45:54;7.57;;;6.37;;
13411;SDS011;67102;51.666;6.880;2023-03-01T14:48:20;11.43;;;5.93;;
13411;SDS011;67102;51.666;6.880;2023-03-01T14:50:47;7.67;;;6.37;;
13411;SDS011;67102;51.666;6.880;2023-03-01T14:53:17;7.07;;;5.90;;
13411;SDS011;67102;51.666;6.880;2023-03-01T14:55:46;8.63;;;5.70;;
13411;SDS011;67102;51.666;6.880;2023-03-01T14:58:18;7.93;;;5.57;;
13411;SDS011;67102;51.666;6.880;2023-03-01T15:00:50;8.43;;;6.10;;
13411;SDS011;67102;51.666;6.880;2023-03-01T15:03:21;6.87;;;5.90;;
13411;SDS011;67102;51.666;6.880;2023-03-01T15:05:51;8.83;;;6.03;;
13411;SDS011;67102;51.666;6.880;2023-03-01T15:08:20;8.70;;;6.50;;
13411;SDS011;67102;51.666;6.880;2023-03-01T15:10:56;6.43;;;5.73;;
13411;SDS011;67102;51.666;6.880;2023-03-01T15:13:25;7.87;;;6.30;;
13411;SDS011;67102;51.666;6.880;2023-03-01T15:16:00;8.23;;;6.50;;
13411;SDS011;67102;51.666;6.880;2023-03-01T15:18:31;9.73;;;6.50;;
13411;SDS011;67102;51.666;6.880;2023-03-01T15:21:05;6.63;;;5.70;;